Hovedside
METAR-TAF:

METAR-TAF

Lufthavner :

Båtsfjord lufthavn

Båtsfjord, Norge

breddegrad: 70-38N, lengdegrad: 029-44E, høyde over havet: 10 m

Gjeldene værobservasjon

Denne rapporten ble laget for 2 timer og 12 minutter siden, klokken 10:50 UTC
Vind 6 kt fra Nord
Temperatur 9°C
Luftfuktighet 71%
Trykk 1012 hPa
Sikt 10 km eller mer
Brutte skyer i en høyde av 2300 ft

METAR: ENBS 151050Z 35006KT 9999 BKN023 09/04 Q1012

Tid: 15:02 (13:02 UTC)


TAF: fraværende

Værobservasjoner og værvarsel for over 4000 flyplasser (METAR- og TAF-rapporter).

Tilgjengelige stasjoner er representert av de røde og gule prikkene på kartet.

Hold musepekeren over prikken for å se navnet på stasjonen.

Klikk så for å se værobservasjoner og -varsler.

For å forandre kartet kan du klikke på den grønne knappen med svart kryss for å zoome inn, på den grønne knappen med strek for å zoome ut, eller på de grønne pilene for å se tilstøtende kart.


METAR-TAF: